Seabulk Arctic — WCY7054 — position and weather

sailwx.info

Track history (hours):
 
Tides and Currents Weather Stations Pressure Air Temp Water Temp Dewpoint Dewpoint Depression Visibility Wind Speed Wind Dir Waves Ship Positions

Seabulk Arctic

Owner: LIGHTSHIP TANKERS IV LLC, FORT LAUDERDALE, FL. More information available from US FCC via Universal Licensing System and Coast Guard Vessel Documentation Center.

Last reported at 2015-Aug-31 18:00 UTC. Time now 2015-Sep-01 07:58 UTC.
Position N 32°00' W 077°00'.

Type: Tanker. MMSI: 366826000.

Wind from 180 at 20 knots

Waves 1.5 meters (5 feet), 2 second period

Barometer 1018.0 mb
Air temperature 28.5 ° C
Visibility: greater than 5.4 NM

Date/timePositionNaut miles runAvg speedWind from/ knotsBaromVisibWave heightAir tempDewpointWater temp
2015-Aug-31 18:00N 32°00' W 077°00'13911.8 180 / 201018.0 5.4 1.528.5
2015-Aug-31 06:15N 34°03' W 075°43'413.4
2015-Aug-31 06:00N 34°06' W 075°42'510.4 150 / 51019.010.8 0.526.0
2015-Aug-31 05:33N 34°10' W 075°40'2712.8
2015-Aug-31 03:24N 34°35' W 075°25'3711.7
2015-Aug-31 00:16N 35°07' W 075°05'18514.4
2015-Aug-30 11:29N 38°11' W 074°43'1313.6
2015-Aug-30 10:33N 38°24' W 074°43'1313.4
2015-Aug-30 09:33N 38°35' W 074°52'1414.4
2015-Aug-30 08:33N 38°47' W 075°02'1313.4
2015-Aug-30 07:33N 38°60' W 075°08'1515.1
2015-Aug-30 06:33N 39°13' W 075°18'1515.3
2015-Aug-30 05:34N 39°24' W 075°30'1212.3
2015-Aug-30 04:33N 39°36' W 075°34'1010.2
2015-Aug-30 03:33N 39°46' W 075°29'5 4.4
2015-Aug-30 02:32N 39°49' W 075°24'0 0.0
2015-Aug-30 01:32N 39°49' W 075°24'0 0.0
2015-Aug-30 00:32N 39°49' W 075°24'0 0.0
2015-Aug-29 23:32N 39°49' W 075°24'0 0.0
2015-Aug-29 22:32N 39°49' W 075°24'0 0.0
2015-Aug-29 21:32N 39°49' W 075°24'0 0.0
2015-Aug-29 20:32N 39°49' W 075°24'0 0.0
2015-Aug-29 19:32N 39°49' W 075°24'0 0.0
2015-Aug-29 18:32N 39°49' W 075°24'0 0.0
2015-Aug-29 17:32N 39°49' W 075°24'0 0.0
2015-Aug-29 16:32N 39°49' W 075°24'0 0.0
2015-Aug-29 15:32N 39°49' W 075°24'0 0.0
2015-Aug-29 14:32N 39°49' W 075°24'0 0.0
2015-Aug-29 13:32N 39°49' W 075°24'0 0.0
2015-Aug-29 12:32N 39°49' W 075°24'0 0.0
2015-Aug-29 11:32N 39°49' W 075°24'0 0.1
2015-Aug-29 10:33N 39°49' W 075°24'5 5.0
2015-Aug-29 09:34N 39°45' W 075°29'9 9.4
2015-Aug-29 08:33N 39°37' W 075°35'10 9.5
2015-Aug-29 07:33N 39°27' W 075°34'1010.2
2015-Aug-29 06:34N 39°20' W 075°25'10 9.8
2015-Aug-29 05:34N 39°12' W 075°17'1010.4
2015-Aug-29 04:33N 39°03' W 075°10'9 9.2
2015-Aug-29 03:34N 38°54' W 075°07'7 7.1
2015-Aug-29 02:32N 38°60' W 075°13'0 0.1
2015-Aug-29 01:32N 38°60' W 075°13'0 0.0
2015-Aug-29 00:29N 38°60' W 075°13'0 0.0
2015-Aug-28 23:29N 38°60' W 075°13'0 0.0
2015-Aug-28 22:32N 38°60' W 075°13'0 0.0
2015-Aug-28 21:32N 38°60' W 075°13'0 0.2
2015-Aug-28 20:32N 38°60' W 075°13'0 0.1
2015-Aug-28 19:32N 38°60' W 075°13'0 0.0
2015-Aug-28 18:30N 38°60' W 075°13'0 0.0
2015-Aug-28 17:33N 38°60' W 075°13'0 0.0
2015-Aug-28 16:32N 38°60' W 075°13'0 0.0
2015-Aug-28 15:32N 38°60' W 075°13'0 0.2
2015-Aug-28 14:32N 38°60' W 075°13'0 0.0
2015-Aug-28 13:32N 38°60' W 075°13'0 0.0
2015-Aug-28 12:32N 38°60' W 075°13'0 0.0
2015-Aug-28 11:32N 38°60' W 075°13'0 0.0
2015-Aug-28 10:32N 38°60' W 075°13'0 0.0
2015-Aug-28 09:32N 38°60' W 075°13'0 0.1
2015-Aug-28 08:32N 38°60' W 075°13'0 0.3
2015-Aug-28 07:32N 38°59' W 075°13'0 0.1
2015-Aug-28 06:32N 38°60' W 075°13'2 1.7
2015-Aug-28 05:33N 38°58' W 075°12'9 9.2
2015-Aug-28 04:33N 38°51' W 075°05'8 7.6
2015-Aug-28 03:33N 38°45' W 074°58'1110.5
2015-Aug-28 02:33N 38°37' W 074°49'3814.7
2015-Aug-28 00:00N 38°00' W 074°42'15112.6 350 / 5 10.8 0.5
2015-Aug-27 12:00N 35°30' W 075°00'5512.4 040 / 24 5.4 1.0
2015-Aug-27 07:32N 34°39' W 075°26'2013.0
2015-Aug-27 06:00N 34°24' W 075°42'8113.5 300 / 91013.5 5.4 0.525.0
2015-Aug-27 00:00N 33°24' W 076°48'8614.4 170 / 9 10.8 0.5
2015-Aug-26 18:00N 32°18' W 077°54'28015.6 240 / 121013.010.8 0.530.0
2015-Aug-26 00:00N 27°54' W 079°42'2114.7 170 / 5 10.8 0.5
2015-Aug-25 22:33N 27°33' W 079°42'3417.2
2015-Aug-25 20:33N 26°58' W 079°43'1717.0
2015-Aug-25 19:33N 26°42' W 079°43'1716.9
2015-Aug-25 18:33N 26°25' W 079°46'1717.0
2015-Aug-25 17:33N 26°08' W 079°49'1717.0
2015-Aug-25 16:33N 25°51' W 079°52'1717.1
2015-Aug-25 15:33N 25°34' W 079°55'5916.4
2015-Aug-25 12:00N 24°42' W 080°24'9616.0 270 / 5 5.4 0.5
2015-Aug-25 06:00N 24°18' W 082°06'7712.9 080 / 91012.010.8 0.529.0
2015-Aug-25 00:00N 24°30' W 083°30'8113.4 040 / 13 10.8 0.5
2015-Aug-24 18:00N 25°24' W 084°36'7612.7 030 / 121014.510.8 0.530.0
2015-Aug-24 12:00N 26°12' W 085°42'7712.9 010 / 13 10.8 0.5
2015-Aug-24 06:00N 26°30' W 087°06'8213.7 020 / 91014.510.8 0.528.0
2015-Aug-24 00:00N 26°48' W 088°36'7512.5 010 / 13 10.8 0.5
2015-Aug-23 18:00N 26°54' W 090°00'33213.8 040 / 121015.010.8 0.529.0
2015-Aug-22 18:00N 27°24' W 096°12'   150 / 151013.010.8 1.031.0
Track history (hours):
 
Tides and Currents Weather Stations Pressure Air Temp Water Temp Dewpoint Dewpoint Depression Visibility Wind Speed Wind Dir Waves Ship Positions

Seabulk Arctic

Owner: LIGHTSHIP TANKERS IV LLC, FORT LAUDERDALE, FL. More information available from US FCC via Universal Licensing System and Coast Guard Vessel Documentation Center.

Last reported at 2015-Aug-31 18:00 UTC. Time now 2015-Sep-01 07:58 UTC.
Position N 32°00' W 077°00'.

Type: Tanker. MMSI: 366826000.

Wind from 180 at 20 knots

Waves 1.5 meters (5 feet), 2 second period

Barometer 1018.0 mb
Air temperature 28.5 ° C
Visibility: greater than 5.4 NM

Date/timePositionNaut miles runAvg speedWind from/ knotsBaromVisibWave heightAir tempDewpointWater temp
2015-Aug-31 18:00N 32°00' W 077°00'13911.8 180 / 201018.0 5.4 1.528.5
2015-Aug-31 06:15N 34°03' W 075°43'413.4
2015-Aug-31 06:00N 34°06' W 075°42'510.4 150 / 51019.010.8 0.526.0
2015-Aug-31 05:33N 34°10' W 075°40'2712.8
2015-Aug-31 03:24N 34°35' W 075°25'3711.7
2015-Aug-31 00:16N 35°07' W 075°05'18514.4
2015-Aug-30 11:29N 38°11' W 074°43'1313.6
2015-Aug-30 10:33N 38°24' W 074°43'1313.4
2015-Aug-30 09:33N 38°35' W 074°52'1414.4
2015-Aug-30 08:33N 38°47' W 075°02'1313.4
2015-Aug-30 07:33N 38°60' W 075°08'1515.1
2015-Aug-30 06:33N 39°13' W 075°18'1515.3
2015-Aug-30 05:34N 39°24' W 075°30'1212.3
2015-Aug-30 04:33N 39°36' W 075°34'1010.2
2015-Aug-30 03:33N 39°46' W 075°29'5 4.4
2015-Aug-30 02:32N 39°49' W 075°24'0 0.0
2015-Aug-30 01:32N 39°49' W 075°24'0 0.0
2015-Aug-30 00:32N 39°49' W 075°24'0 0.0
2015-Aug-29 23:32N 39°49' W 075°24'0 0.0
2015-Aug-29 22:32N 39°49' W 075°24'0 0.0
2015-Aug-29 21:32N 39°49' W 075°24'0 0.0
2015-Aug-29 20:32N 39°49' W 075°24'0 0.0
2015-Aug-29 19:32N 39°49' W 075°24'0 0.0
2015-Aug-29 18:32N 39°49' W 075°24'0 0.0
2015-Aug-29 17:32N 39°49' W 075°24'0 0.0
2015-Aug-29 16:32N 39°49' W 075°24'0 0.0
2015-Aug-29 15:32N 39°49' W 075°24'0 0.0
2015-Aug-29 14:32N 39°49' W 075°24'0 0.0
2015-Aug-29 13:32N 39°49' W 075°24'0 0.0
2015-Aug-29 12:32N 39°49' W 075°24'0 0.0
2015-Aug-29 11:32N 39°49' W 075°24'0 0.1
2015-Aug-29 10:33N 39°49' W 075°24'5 5.0
2015-Aug-29 09:34N 39°45' W 075°29'9 9.4
2015-Aug-29 08:33N 39°37' W 075°35'10 9.5
2015-Aug-29 07:33N 39°27' W 075°34'1010.2
2015-Aug-29 06:34N 39°20' W 075°25'10 9.8
2015-Aug-29 05:34N 39°12' W 075°17'1010.4
2015-Aug-29 04:33N 39°03' W 075°10'9 9.2
2015-Aug-29 03:34N 38°54' W 075°07'7 7.1
2015-Aug-29 02:32N 38°60' W 075°13'0 0.1
2015-Aug-29 01:32N 38°60' W 075°13'0 0.0
2015-Aug-29 00:29N 38°60' W 075°13'0 0.0
2015-Aug-28 23:29N 38°60' W 075°13'0 0.0
2015-Aug-28 22:32N 38°60' W 075°13'0 0.0
2015-Aug-28 21:32N 38°60' W 075°13'0 0.2
2015-Aug-28 20:32N 38°60' W 075°13'0 0.1
2015-Aug-28 19:32N 38°60' W 075°13'0 0.0
2015-Aug-28 18:30N 38°60' W 075°13'0 0.0
2015-Aug-28 17:33N 38°60' W 075°13'0 0.0
2015-Aug-28 16:32N 38°60' W 075°13'0 0.0
2015-Aug-28 15:32N 38°60' W 075°13'0 0.2
2015-Aug-28 14:32N 38°60' W 075°13'0 0.0
2015-Aug-28 13:32N 38°60' W 075°13'0 0.0
2015-Aug-28 12:32N 38°60' W 075°13'0 0.0
2015-Aug-28 11:32N 38°60' W 075°13'0 0.0
2015-Aug-28 10:32N 38°60' W 075°13'0 0.0
2015-Aug-28 09:32N 38°60' W 075°13'0 0.1
2015-Aug-28 08:32N 38°60' W 075°13'0 0.3
2015-Aug-28 07:32N 38°59' W 075°13'0 0.1
2015-Aug-28 06:32N 38°60' W 075°13'2 1.7
2015-Aug-28 05:33N 38°58' W 075°12'9 9.2
2015-Aug-28 04:33N 38°51' W 075°05'8 7.6
2015-Aug-28 03:33N 38°45' W 074°58'1110.5
2015-Aug-28 02:33N 38°37' W 074°49'3814.7
2015-Aug-28 00:00N 38°00' W 074°42'15112.6 350 / 5 10.8 0.5
2015-Aug-27 12:00N 35°30' W 075°00'5512.4 040 / 24 5.4 1.0
2015-Aug-27 07:32N 34°39' W 075°26'2013.0
2015-Aug-27 06:00N 34°24' W 075°42'8113.5 300 / 91013.5 5.4 0.525.0
2015-Aug-27 00:00N 33°24' W 076°48'8614.4 170 / 9 10.8 0.5
2015-Aug-26 18:00N 32°18' W 077°54'28015.6 240 / 121013.010.8 0.530.0
2015-Aug-26 00:00N 27°54' W 079°42'2114.7 170 / 5 10.8 0.5
2015-Aug-25 22:33N 27°33' W 079°42'3417.2
2015-Aug-25 20:33N 26°58' W 079°43'1717.0
2015-Aug-25 19:33N 26°42' W 079°43'1716.9
2015-Aug-25 18:33N 26°25' W 079°46'1717.0
2015-Aug-25 17:33N 26°08' W 079°49'1717.0
2015-Aug-25 16:33N 25°51' W 079°52'1717.1
2015-Aug-25 15:33N 25°34' W 079°55'5916.4
2015-Aug-25 12:00N 24°42' W 080°24'9616.0 270 / 5 5.4 0.5
2015-Aug-25 06:00N 24°18' W 082°06'7712.9 080 / 91012.010.8 0.529.0
2015-Aug-25 00:00N 24°30' W 083°30'8113.4 040 / 13 10.8 0.5
2015-Aug-24 18:00N 25°24' W 084°36'7612.7 030 / 121014.510.8 0.530.0
2015-Aug-24 12:00N 26°12' W 085°42'7712.9 010 / 13 10.8 0.5
2015-Aug-24 06:00N 26°30' W 087°06'8213.7 020 / 91014.510.8 0.528.0
2015-Aug-24 00:00N 26°48' W 088°36'7512.5 010 / 13 10.8 0.5
2015-Aug-23 18:00N 26°54' W 090°00'33213.8 040 / 121015.010.8 0.529.0
2015-Aug-22 18:00N 27°24' W 096°12'   150 / 151013.010.8 1.031.0

Dump ship's entire track history